createdAt,value
2023-03-03T00:00:07.001Z,20.77
2023-03-03T00:02:40.655Z,20.05
2023-03-03T00:05:08.590Z,19.27
2023-03-03T00:07:35.555Z,19.10
2023-03-03T00:10:02.563Z,19.25
2023-03-03T00:12:31.191Z,20.15
2023-03-03T00:14:58.714Z,19.88
2023-03-03T00:17:28.670Z,18.50
2023-03-03T00:19:56.536Z,16.00
2023-03-03T00:22:30.899Z,16.70
2023-03-03T00:25:30.971Z,14.82
2023-03-03T00:28:28.275Z,19.30
2023-03-03T00:30:57.700Z,19.90
2023-03-03T00:33:34.232Z,19.73
2023-03-03T00:36:31.996Z,18.98
2023-03-03T00:39:18.764Z,16.73
2023-03-03T00:41:46.923Z,15.45
2023-03-03T00:44:41.835Z,14.27
2023-03-03T00:47:32.184Z,18.13
2023-03-03T00:50:11.416Z,17.30
2023-03-03T00:52:40.903Z,16.45
2023-03-03T00:55:08.644Z,22.25
2023-03-03T00:57:35.592Z,22.77
2023-03-03T01:00:05.456Z,29.35
2023-03-03T01:02:33.157Z,30.95
2023-03-03T01:05:01.075Z,30.15
2023-03-03T01:07:28.138Z,31.48
2023-03-03T01:09:55.706Z,38.58
2023-03-03T01:12:24.598Z,33.17
2023-03-03T01:14:53.217Z,33.20
2023-03-03T01:17:20.172Z,37.30
2023-03-03T01:19:47.914Z,35.53
2023-03-03T01:22:14.879Z,36.15
2023-03-03T01:24:42.133Z,39.60
2023-03-03T01:27:09.470Z,37.80
2023-03-03T01:29:37.049Z,40.65
2023-03-03T01:32:04.128Z,44.50
2023-03-03T01:34:31.739Z,40.22
2023-03-03T01:36:58.745Z,40.33
2023-03-03T01:39:26.309Z,45.63
2023-03-03T01:41:53.662Z,44.65
2023-03-03T01:44:20.909Z,43.67
2023-03-03T01:47:10.111Z,46.15
2023-03-03T01:49:55.998Z,44.53
2023-03-03T01:52:34.327Z,43.58
2023-03-03T01:55:06.698Z,46.22
2023-03-03T01:57:41.326Z,46.53
2023-03-03T02:00:12.325Z,45.20
2023-03-03T02:02:41.040Z,46.97
2023-03-03T02:05:08.977Z,44.50
2023-03-03T02:07:37.638Z,47.47
2023-03-03T02:10:09.363Z,45.47
2023-03-03T02:13:05.960Z,44.67
2023-03-03T02:15:37.963Z,45.85
2023-03-03T02:18:17.367Z,46.55
2023-03-03T02:21:03.089Z,48.38
2023-03-03T02:23:50.419Z,47.60
2023-03-03T02:26:22.966Z,48.42
2023-03-03T02:28:56.207Z,41.30
2023-03-03T02:31:26.392Z,49.55
2023-03-03T02:33:55.169Z,42.28
2023-03-03T02:36:29.994Z,43.60
2023-03-03T02:39:07.400Z,45.20
2023-03-03T02:41:55.925Z,47.10
2023-03-03T02:44:28.607Z,48.17
2023-03-03T02:46:56.059Z,45.67
2023-03-03T02:49:26.232Z,46.83
2023-03-03T02:51:54.394Z,50.97
2023-03-03T02:54:24.501Z,49.75
2023-03-03T02:56:52.123Z,46.97
2023-03-03T02:59:20.696Z,45.78
2023-03-03T03:01:50.315Z,45.55
2023-03-03T03:04:22.487Z,42.00
2023-03-03T03:06:51.216Z,43.88
2023-03-03T03:09:19.966Z,40.97
2023-03-03T03:11:48.944Z,43.38
2023-03-03T03:14:19.010Z,42.72
2023-03-03T03:16:46.259Z,43.60
2023-03-03T03:19:13.365Z,39.75
2023-03-03T03:21:41.179Z,38.85
2023-03-03T03:24:09.235Z,38.70
2023-03-03T03:26:38.582Z,39.63
2023-03-03T03:29:06.455Z,37.75
2023-03-03T03:31:34.175Z,40.20
2023-03-03T03:34:03.323Z,38.47
2023-03-03T03:36:31.357Z,39.70
2023-03-03T03:38:59.027Z,39.20
2023-03-03T03:41:26.977Z,39.00
2023-03-03T03:43:55.075Z,39.92
2023-03-03T03:46:22.885Z,39.28
2023-03-03T03:48:50.746Z,39.55
2023-03-03T03:51:20.302Z,39.33
2023-03-03T03:53:48.077Z,39.28
2023-03-03T03:56:15.289Z,38.38
2023-03-03T03:58:44.847Z,39.15
2023-03-03T04:01:14.399Z,39.65
2023-03-03T04:03:46.764Z,38.30
2023-03-03T04:06:17.868Z,43.70
2023-03-03T04:08:45.641Z,43.53
2023-03-03T04:11:13.613Z,43.15
2023-03-03T04:13:41.105Z,42.35
2023-03-03T04:16:09.722Z,43.42
2023-03-03T04:18:38.444Z,43.28
2023-03-03T04:21:05.795Z,42.10
2023-03-03T04:23:34.103Z,44.47
2023-03-03T04:26:02.455Z,42.33
2023-03-03T04:28:29.806Z,43.25
2023-03-03T04:30:57.394Z,41.10
2023-03-03T04:33:26.575Z,30.48
2023-03-03T04:35:53.897Z,31.25
2023-03-03T04:38:22.204Z,37.28
2023-03-03T04:40:51.347Z,37.58
2023-03-03T04:43:19.888Z,37.88
2023-03-03T04:45:47.513Z,35.38
2023-03-03T04:48:16.554Z,32.40
2023-03-03T04:50:43.998Z,33.97
2023-03-03T04:53:11.357Z,33.60
2023-03-03T04:55:40.492Z,33.30
2023-03-03T04:58:10.500Z,34.83
2023-03-03T05:00:39.938Z,34.95
2023-03-03T05:03:11.817Z,35.72
2023-03-03T05:05:41.336Z,36.05
2023-03-03T05:08:08.294Z,35.33
2023-03-03T05:10:37.817Z,35.40
2023-03-03T05:13:05.179Z,33.80
2023-03-03T05:15:32.632Z,34.47
2023-03-03T05:17:59.711Z,33.28
2023-03-03T05:20:26.826Z,34.70
2023-03-03T05:22:53.861Z,34.72
2023-03-03T05:25:21.696Z,34.92
2023-03-03T05:27:48.715Z,35.33
2023-03-03T05:30:15.786Z,35.60
2023-03-03T05:32:43.337Z,37.05
2023-03-03T05:35:10.651Z,37.72
2023-03-03T05:37:37.741Z,35.92
2023-03-03T05:40:05.125Z,37.17
2023-03-03T05:42:32.528Z,35.15
2023-03-03T05:44:59.573Z,36.35
2023-03-03T05:47:26.573Z,37.00
2023-03-03T05:49:53.538Z,37.20
2023-03-03T05:52:20.580Z,37.25
2023-03-03T05:54:47.614Z,37.08
2023-03-03T05:57:14.686Z,39.63
2023-03-03T05:59:41.705Z,39.35
2023-03-03T06:02:08.838Z,40.35
2023-03-03T06:04:35.938Z,41.40
2023-03-03T06:07:03.400Z,39.13
2023-03-03T06:09:30.423Z,40.70
2023-03-03T06:11:57.493Z,38.58
2023-03-03T06:14:27.199Z,37.17
2023-03-03T06:16:55.074Z,36.83
2023-03-03T06:19:22.018Z,36.35
2023-03-03T06:21:50.273Z,32.92
2023-03-03T06:24:17.855Z,33.25
2023-03-03T06:26:45.164Z,37.38
2023-03-03T06:29:14.054Z,37.45
2023-03-03T06:31:43.722Z,40.45
2023-03-03T06:34:10.978Z,43.03
2023-03-03T06:36:38.340Z,42.85
2023-03-03T06:39:05.877Z,39.80
2023-03-03T06:41:33.363Z,37.83
2023-03-03T06:44:00.982Z,40.25
2023-03-03T06:46:28.895Z,41.40
2023-03-03T06:48:55.998Z,38.88
2023-03-03T06:51:32.536Z,37.40
2023-03-03T06:54:06.790Z,38.45
2023-03-03T06:56:37.315Z,37.20
2023-03-03T06:59:30.636Z,37.03
2023-03-03T07:01:58.997Z,36.00
2023-03-03T07:04:29.842Z,34.40
2023-03-03T07:07:13.938Z,32.50
2023-03-03T07:09:41.110Z,31.42
2023-03-03T07:12:13.758Z,34.47
2023-03-03T07:14:51.844Z,32.65
2023-03-03T07:17:21.083Z,36.20
2023-03-03T07:19:49.000Z,33.53
2023-03-03T07:22:19.231Z,33.50
2023-03-03T07:24:54.706Z,36.85
2023-03-03T07:27:28.141Z,33.03
2023-03-03T07:30:27.318Z,32.35
2023-03-03T07:32:57.751Z,33.63
2023-03-03T07:35:38.406Z,33.92
2023-03-03T07:38:14.445Z,34.13
2023-03-03T07:40:51.558Z,32.88
2023-03-03T07:45:51.517Z,33.45
2023-03-03T07:48:31.311Z,32.42
2023-03-03T07:51:06.470Z,30.73
2023-03-03T07:53:36.661Z,30.50
2023-03-03T07:56:12.461Z,30.02
2023-03-03T07:58:41.406Z,29.02
2023-03-03T08:01:40.050Z,32.42
2023-03-03T08:04:13.823Z,28.25
2023-03-03T08:06:49.618Z,28.75
2023-03-03T08:09:30.902Z,28.63
2023-03-03T08:12:10.078Z,28.33
2023-03-03T08:14:38.859Z,29.23
2023-03-03T08:17:28.656Z,26.65
2023-03-03T08:19:56.924Z,27.83
2023-03-03T08:22:37.314Z,27.60
2023-03-03T08:25:05.034Z,27.92
2023-03-03T08:27:32.159Z,26.98
2023-03-03T08:30:00.191Z,26.30
2023-03-03T08:32:27.194Z,26.80
2023-03-03T08:34:54.461Z,23.17
2023-03-03T08:37:21.713Z,23.25
2023-03-03T08:39:48.974Z,25.15
2023-03-03T08:42:16.365Z,26.33
2023-03-03T08:44:44.193Z,25.30
2023-03-03T08:47:11.174Z,26.05
2023-03-03T08:49:40.190Z,25.20
2023-03-03T08:52:07.747Z,26.42
2023-03-03T08:54:35.462Z,26.35
2023-03-03T08:57:02.448Z,26.00
2023-03-03T08:59:31.523Z,25.83
2023-03-03T09:01:58.582Z,25.80
2023-03-03T09:04:25.700Z,24.00
2023-03-03T09:06:54.187Z,25.77
2023-03-03T09:09:21.383Z,23.80
2023-03-03T09:11:48.672Z,22.67
2023-03-03T09:14:19.041Z,21.50
2023-03-03T09:16:52.997Z,19.65
2023-03-03T09:19:34.803Z,24.30
2023-03-03T09:22:23.604Z,23.05
2023-03-03T09:24:54.867Z,22.27
2023-03-03T09:27:34.048Z,20.67
2023-03-03T09:30:17.537Z,24.92
2023-03-03T09:32:44.947Z,26.50
2023-03-03T09:35:38.276Z,25.10
2023-03-03T09:38:32.751Z,25.55
2023-03-03T09:41:21.433Z,24.02
2023-03-03T09:44:19.620Z,21.83
2023-03-03T09:46:59.240Z,20.80
2023-03-03T09:49:34.608Z,20.20
2023-03-03T09:52:41.220Z,18.45
2023-03-03T09:55:49.414Z,16.63
2023-03-03T09:58:55.213Z,15.23
2023-03-03T10:01:36.884Z,13.40
2023-03-03T10:04:10.467Z,15.38
2023-03-03T10:07:04.015Z,17.02
2023-03-03T10:10:19.504Z,16.85
2023-03-03T10:13:03.028Z,17.65
2023-03-03T10:15:38.080Z,17.73
2023-03-03T10:18:19.891Z,15.20
2023-03-03T10:20:52.414Z,18.73
2023-03-03T10:23:47.876Z,20.92
2023-03-03T10:26:26.949Z,19.58
2023-03-03T10:29:10.638Z,17.80
2023-03-03T10:31:51.878Z,19.02
2023-03-03T10:34:47.802Z,17.70
2023-03-03T10:37:36.210Z,18.23
2023-03-03T10:40:11.893Z,18.23
2023-03-03T10:42:57.430Z,19.63
2023-03-03T10:45:46.787Z,19.23
2023-03-03T10:48:34.015Z,16.88
2023-03-03T10:51:25.725Z,16.05
2023-03-03T10:54:24.929Z,15.45
2023-03-03T10:56:53.606Z,14.75
2023-03-03T10:59:45.494Z,14.60
2023-03-03T11:02:42.850Z,17.95
2023-03-03T11:05:18.448Z,17.67
2023-03-03T11:08:02.494Z,16.00
2023-03-03T11:10:41.943Z,17.23
2023-03-03T11:13:19.613Z,17.25
2023-03-03T11:15:58.653Z,18.52
2023-03-03T11:19:00.593Z,17.88
2023-03-03T11:21:59.805Z,17.48
2023-03-03T11:24:50.816Z,16.95
2023-03-03T11:27:34.626Z,18.65
2023-03-03T11:30:25.502Z,17.90
2023-03-03T11:33:17.122Z,23.38
2023-03-03T11:35:50.128Z,22.80
2023-03-03T11:38:26.388Z,17.85
2023-03-03T11:41:02.901Z,16.00
2023-03-03T11:43:42.978Z,14.38
2023-03-03T11:46:25.791Z,13.73
2023-03-03T11:48:58.285Z,15.32
2023-03-03T11:52:05.695Z,14.25
2023-03-03T11:54:47.410Z,13.38
2023-03-03T11:57:32.849Z,12.20
2023-03-03T12:00:17.861Z,13.45
2023-03-03T12:02:55.963Z,13.35
2023-03-03T12:05:36.650Z,14.70
2023-03-03T12:08:18.392Z,14.48
2023-03-03T12:11:21.437Z,13.40
2023-03-03T12:14:07.763Z,11.45
2023-03-03T12:16:55.210Z,12.20
2023-03-03T12:19:40.535Z,11.90
2023-03-03T12:22:34.640Z,10.45
2023-03-03T12:25:28.196Z,8.27
2023-03-03T12:28:05.749Z,8.75
2023-03-03T12:30:58.230Z,8.40
2023-03-03T12:33:32.951Z,8.55
2023-03-03T12:36:37.640Z,7.70
2023-03-03T12:39:53.098Z,7.47
2023-03-03T12:42:38.852Z,7.82
2023-03-03T12:45:09.164Z,8.93
2023-03-03T12:47:50.449Z,8.40
2023-03-03T12:50:52.141Z,9.10
2023-03-03T12:54:03.017Z,9.40
2023-03-03T12:56:46.480Z,8.45
2023-03-03T12:59:43.654Z,7.75
2023-03-03T13:02:10.843Z,9.43
2023-03-03T13:04:54.076Z,8.98
2023-03-03T13:07:38.892Z,6.95
2023-03-03T13:10:26.974Z,6.65
2023-03-03T13:13:02.251Z,7.18
2023-03-03T13:15:37.977Z,6.60
2023-03-03T13:18:16.787Z,6.28
2023-03-03T13:20:54.244Z,6.32
2023-03-03T13:23:38.696Z,6.22
2023-03-03T13:26:15.725Z,6.78
2023-03-03T13:31:20.964Z,7.93
2023-03-03T13:33:59.084Z,6.28
2023-03-03T13:36:57.394Z,6.07
2023-03-03T13:42:08.793Z,6.90
2023-03-03T13:44:42.162Z,11.15
2023-03-03T13:47:30.774Z,8.23
2023-03-03T13:50:12.313Z,6.93
2023-03-03T13:53:05.162Z,7.63
2023-03-03T13:55:49.257Z,6.18
2023-03-03T13:58:25.179Z,5.13
2023-03-03T14:00:58.933Z,5.50
2023-03-03T14:03:40.941Z,5.72
2023-03-03T14:06:23.686Z,5.03
2023-03-03T14:08:53.247Z,6.32
2023-03-03T14:11:43.169Z,6.63
2023-03-03T14:14:10.239Z,10.35
2023-03-03T14:16:48.311Z,7.45
2023-03-03T14:19:31.089Z,5.90
2023-03-03T14:22:03.826Z,5.90
2023-03-03T14:24:30.983Z,6.25
2023-03-03T14:27:00.783Z,5.93
2023-03-03T14:29:27.905Z,6.68
2023-03-03T14:31:59.633Z,7.65
2023-03-03T14:34:41.547Z,7.13
2023-03-03T14:37:29.746Z,7.03
2023-03-03T14:40:11.584Z,6.10
2023-03-03T14:42:50.414Z,6.22
2023-03-03T14:45:33.407Z,5.57
2023-03-03T14:48:11.503Z,7.40
2023-03-03T14:50:41.786Z,5.07
2023-03-03T14:53:21.744Z,5.35
2023-03-03T14:55:53.608Z,5.72
2023-03-03T14:58:32.750Z,6.45
2023-03-03T15:01:13.018Z,5.07
2023-03-03T15:03:48.129Z,6.28
2023-03-03T15:06:42.552Z,5.97
2023-03-03T15:09:30.732Z,6.45
2023-03-03T15:12:00.406Z,6.10
2023-03-03T15:14:39.518Z,7.50
2023-03-03T15:17:29.912Z,6.88
2023-03-03T15:20:22.793Z,8.10
2023-03-03T15:22:49.779Z,7.25
2023-03-03T15:25:42.331Z,6.18
2023-03-03T15:28:47.157Z,7.00
2023-03-03T15:31:36.074Z,6.93
2023-03-03T15:34:13.074Z,3.88
2023-03-03T15:37:15.415Z,7.00
2023-03-03T15:39:49.122Z,4.10
2023-03-03T15:42:29.919Z,6.43
2023-03-03T15:45:07.635Z,4.05
2023-03-03T15:47:53.029Z,5.32
2023-03-03T15:50:39.188Z,5.38
2023-03-03T15:53:33.947Z,4.40
2023-03-03T15:56:31.863Z,7.25
2023-03-03T15:59:20.482Z,6.22
2023-03-03T16:01:57.457Z,6.07
2023-03-03T16:04:31.649Z,5.35
2023-03-03T16:07:02.420Z,5.85
2023-03-03T16:09:48.791Z,7.53
2023-03-03T16:12:42.805Z,6.90
2023-03-03T16:15:18.648Z,6.28
2023-03-03T16:17:59.584Z,7.13
2023-03-03T16:20:48.538Z,6.07
2023-03-03T16:23:37.419Z,6.57
2023-03-03T16:26:29.342Z,6.82
2023-03-03T16:29:36.112Z,8.15
2023-03-03T16:32:03.397Z,7.53
2023-03-03T16:34:55.328Z,8.15
2023-03-03T16:38:06.004Z,7.88
2023-03-03T16:40:39.222Z,7.20
2023-03-03T16:43:23.457Z,7.07
2023-03-03T16:45:51.358Z,6.68
2023-03-03T16:49:19.529Z,14.43
2023-03-03T16:51:59.370Z,15.75
2023-03-03T16:54:38.873Z,21.27
2023-03-03T16:57:30.822Z,20.25
2023-03-03T17:00:33.650Z,16.13
2023-03-03T17:03:35.896Z,16.30
2023-03-03T17:06:36.820Z,21.48
2023-03-03T17:09:31.803Z,20.30
2023-03-03T17:12:03.159Z,18.17
2023-03-03T17:14:57.829Z,17.35
2023-03-03T17:17:42.888Z,18.92
2023-03-03T17:20:31.485Z,17.92
2023-03-03T17:23:27.791Z,21.23
2023-03-03T17:26:21.146Z,19.83
2023-03-03T17:29:14.646Z,19.92
2023-03-03T17:31:58.463Z,20.30
2023-03-03T17:35:04.628Z,22.42
2023-03-03T17:37:51.189Z,20.30
2023-03-03T17:40:37.052Z,17.43
2023-03-03T17:43:10.448Z,16.73
2023-03-03T17:45:42.747Z,19.15
2023-03-03T17:48:42.630Z,17.55
2023-03-03T17:51:54.883Z,17.38
2023-03-03T17:54:31.121Z,22.00
2023-03-03T17:57:06.842Z,31.00
2023-03-03T18:00:00.275Z,24.85
2023-03-03T18:03:02.794Z,29.80
2023-03-03T18:05:43.685Z,31.95
2023-03-03T18:08:25.924Z,32.17
2023-03-03T18:11:07.581Z,28.85
2023-03-03T18:13:44.894Z,24.48
2023-03-03T18:21:18.627Z,20.48
2023-03-03T18:23:47.727Z,21.65
2023-03-03T18:26:37.916Z,20.38
2023-03-03T18:29:16.944Z,21.45
2023-03-03T18:32:05.488Z,23.98
2023-03-03T18:34:39.360Z,24.40
2023-03-03T18:37:12.243Z,28.17
2023-03-03T18:39:50.773Z,26.67
2023-03-03T18:42:17.713Z,23.92
2023-03-03T18:44:45.287Z,23.02
2023-03-03T18:47:15.238Z,24.90
2023-03-03T18:49:55.849Z,28.10
2023-03-03T18:52:29.196Z,20.52
2023-03-03T18:55:10.977Z,17.00
2023-03-03T18:57:39.166Z,17.17
2023-03-03T19:00:21.909Z,18.25
2023-03-03T19:02:55.000Z,17.60
2023-03-03T19:05:48.740Z,16.48
2023-03-03T19:08:26.505Z,15.95
2023-03-03T19:10:58.100Z,24.23
2023-03-03T19:13:45.971Z,30.55
2023-03-03T19:16:25.211Z,27.33
2023-03-03T19:19:06.692Z,21.35
2023-03-03T19:21:36.372Z,23.38
2023-03-03T19:24:23.520Z,23.02
2023-03-03T19:27:12.788Z,21.60
2023-03-03T19:29:45.624Z,20.60
2023-03-03T19:32:40.093Z,22.75
2023-03-03T19:35:38.508Z,20.92
2023-03-03T19:41:18.389Z,18.75
2023-03-03T19:44:04.052Z,16.33
2023-03-03T19:46:49.742Z,15.57
2023-03-03T19:49:46.018Z,14.57
2023-03-03T19:52:32.005Z,14.05
2023-03-03T19:55:10.021Z,14.85
2023-03-03T19:58:01.868Z,13.50
2023-03-03T20:00:51.888Z,12.75
2023-03-03T20:03:24.548Z,12.32
2023-03-03T20:06:07.258Z,14.10
2023-03-03T20:08:44.091Z,12.10
2023-03-03T20:11:46.706Z,13.00
2023-03-03T20:14:49.316Z,13.00
2023-03-03T20:17:28.203Z,13.10
2023-03-03T20:20:28.038Z,11.48
2023-03-03T20:23:21.502Z,11.63
2023-03-03T20:25:55.019Z,11.13
2023-03-03T20:28:25.792Z,10.52
2023-03-03T20:31:31.874Z,10.80
2023-03-03T20:34:32.035Z,10.40
2023-03-03T20:37:04.521Z,11.50
2023-03-03T20:40:13.731Z,11.02
2023-03-03T20:42:53.431Z,10.68
2023-03-03T20:46:02.090Z,10.55
2023-03-03T20:49:07.505Z,11.38
2023-03-03T20:51:52.206Z,11.48
2023-03-03T20:54:43.120Z,10.32
2023-03-03T20:57:36.260Z,11.48
2023-03-03T21:00:22.643Z,10.73
2023-03-03T21:03:08.573Z,11.07
2023-03-03T21:05:35.944Z,11.60
2023-03-03T21:08:05.724Z,11.27
2023-03-03T21:10:37.096Z,12.23
2023-03-03T21:13:39.642Z,11.63
2023-03-03T21:16:13.059Z,10.02
2023-03-03T21:18:40.412Z,8.77
2023-03-03T21:21:08.855Z,10.48
2023-03-03T21:23:35.928Z,9.70
2023-03-03T21:26:03.692Z,12.00
2023-03-03T21:28:32.089Z,12.15
2023-03-03T21:31:02.907Z,10.07
2023-03-03T21:33:45.039Z,10.48
2023-03-03T21:36:14.637Z,9.90
2023-03-03T21:38:42.824Z,11.15
2023-03-03T21:41:09.933Z,14.52
2023-03-03T21:43:45.782Z,15.40
2023-03-03T21:46:13.376Z,14.10
2023-03-03T21:48:41.868Z,10.98
2023-03-03T21:51:10.684Z,11.88
2023-03-03T21:53:37.740Z,10.13
2023-03-03T21:56:05.146Z,11.23
2023-03-03T21:58:32.112Z,10.85
2023-03-03T22:00:59.357Z,11.57
2023-03-03T22:03:27.771Z,11.43
2023-03-03T22:05:55.166Z,11.07
2023-03-03T22:08:25.166Z,11.27
2023-03-03T22:11:02.269Z,11.45
2023-03-03T22:13:29.725Z,14.15
2023-03-03T22:15:57.051Z,12.40
2023-03-03T22:18:25.052Z,12.65
2023-03-03T22:20:52.094Z,18.20
2023-03-03T22:23:22.212Z,14.10
2023-03-03T22:25:50.022Z,11.93
2023-03-03T22:28:17.977Z,11.48
2023-03-03T22:30:44.989Z,12.25
2023-03-03T22:33:14.815Z,11.05
2023-03-03T22:35:41.962Z,10.00
2023-03-03T22:38:09.113Z,12.13
2023-03-03T22:40:36.088Z,10.57
2023-03-03T22:43:03.225Z,10.75
2023-03-03T22:45:30.240Z,12.18
2023-03-03T22:47:57.250Z,11.15
2023-03-03T22:50:24.757Z,12.23
2023-03-03T22:52:51.822Z,10.80
2023-03-03T22:55:19.517Z,10.98
2023-03-03T22:57:47.032Z,9.85
2023-03-03T23:00:15.397Z,12.00
2023-03-03T23:02:42.373Z,12.00
2023-03-03T23:05:11.389Z,11.45
2023-03-03T23:07:41.240Z,11.70
2023-03-03T23:10:11.155Z,11.98
2023-03-03T23:12:38.442Z,10.68
2023-03-03T23:15:13.648Z,10.45
2023-03-03T23:17:42.997Z,11.18
2023-03-03T23:20:15.689Z,10.68
2023-03-03T23:22:43.377Z,10.73
2023-03-03T23:25:11.992Z,10.52
2023-03-03T23:27:39.761Z,10.50
2023-03-03T23:30:08.163Z,10.60
2023-03-03T23:32:36.045Z,11.00
2023-03-03T23:35:03.507Z,9.70
2023-03-03T23:37:30.831Z,10.27
2023-03-03T23:39:57.758Z,10.70
2023-03-03T23:42:34.113Z,8.93
2023-03-03T23:45:01.661Z,9.07
2023-03-03T23:47:28.764Z,9.18
2023-03-03T23:49:56.205Z,9.38
2023-03-03T23:52:23.153Z,9.10
2023-03-03T23:54:50.275Z,9.15
2023-03-03T23:57:17.375Z,9.30
2023-03-03T23:59:44.466Z,10.07
